Cotulla, Texas
Current Conditions -  °F | °C
As of 11:53 AM on Sunday 23 Nov 2014 (Local Time) from KCOT Reporting Station
Clear Clear  
Wind Chill: 27°   Ceiling: Unl
Heat Index: 27°   Visibility: 10mi
Dew Point:   Wind: 7mph
Humidity: 27%   Direction: 260°W
Pressure: 29.69"   Gusts: 16mph
Location:  28.44°N, 99.24°W
Report Text: KCOT 231753Z AUTO 26006G14KT 10SM CLR 27/07 A2969 RMK AO2 SLP046 T02720067 10278 20100 58018 $
Loading
Personal Weather Stations






























Interactive Weather Map New forecast layout! Learn more

10-Day Weather Forecast

Advertisements
Track Severe Weather on mobile